Time;durP1;ratioP1;P1;durP2;ratioP2;P2;SDS_P1;SDS_P2;PMS_P1;PMS_P2;Temp;Humidity;BMP_temperature;BMP_pressure;BME280_temperature;BME280_humidity;BME280_pressure;Samples;Min_cycle;Max_cycle;Signal;HPM_P1;HPM_P2
2022/12/26 00:01:13;;;;;;;;;;;3.60;85.70;;;;;;5035290;28;20038;-64
2022/12/26 00:03:39;;;;;;;6.53;5.22;;;3.50;84.90;;;;;;5042603;28;19917;-64
2022/12/26 00:06:14;;;;;;;7.25;5.90;;;3.50;85.90;;;;;;5039772;28;20057;-49
2022/12/26 00:08:41;;;;;;;6.70;5.38;;;3.50;86.00;;;;;;5021283;28;20091;-48
2022/12/26 00:11:06;;;;;;;6.18;5.50;;;3.50;85.90;;;;;;5037230;28;20169;-71
2022/12/26 00:13:32;;;;;;;7.53;5.70;;;3.50;85.90;;;;;;5043633;28;20066;-67
2022/12/26 00:15:58;;;;;;;7.30;5.55;;;3.50;85.70;;;;;;5036863;28;20103;-55
2022/12/26 00:18:23;;;;;;;7.95;5.50;;;3.50;86.40;;;;;;5031807;28;20030;-56
2022/12/26 00:20:49;;;;;;;8.13;5.85;;;3.50;85.70;;;;;;5033437;28;20028;-65
2022/12/26 00:23:15;;;;;;;7.90;5.93;;;3.50;85.70;;;;;;5042081;28;20029;-69
2022/12/26 00:25:40;;;;;;;6.82;5.43;;;3.50;86.00;;;;;;5038695;28;20034;-50
2022/12/26 00:28:06;;;;;;;7.82;5.93;;;3.50;86.00;;;;;;5032420;28;20040;-47
2022/12/26 00:30:32;;;;;;;7.45;5.80;;;3.50;85.80;;;;;;5032453;28;20087;-52
2022/12/26 00:32:58;;;;;;;7.70;5.50;;;3.50;85.50;;;;;;5031897;28;20052;-52
2022/12/26 00:35:24;;;;;;;7.47;5.78;;;3.50;85.30;;;;;;5026442;28;20068;-57
2022/12/26 00:37:49;;;;;;;7.53;5.65;;;3.50;85.20;;;;;;5032653;28;20026;-58
2022/12/26 00:40:15;;;;;;;7.97;5.65;;;3.50;85.00;;;;;;5032552;28;20033;-64
2022/12/26 00:42:40;;;;;;;6.40;5.35;;;3.50;85.10;;;;;;5033073;28;20451;-64
2022/12/26 00:45:06;;;;;;;7.00;5.75;;;3.50;85.30;;;;;;5033150;28;20392;-64
2022/12/26 00:47:32;;;;;;;6.70;4.93;;;3.50;85.30;;;;;;5032190;28;20037;-51
2022/12/26 00:49:58;;;;;;;7.82;6.07;;;3.50;85.40;;;;;;5031686;28;20531;-51
2022/12/26 00:52:23;;;;;;;7.85;5.72;;;3.50;85.20;;;;;;5032526;28;20061;-64
2022/12/26 00:54:49;;;;;;;7.40;5.47;;;3.50;85.00;;;;;;5028843;28;20036;-61
2022/12/26 00:57:14;;;;;;;6.43;5.30;;;3.50;84.90;;;;;;5029962;28;20386;-48
2022/12/26 00:59:40;;;;;;;7.63;5.50;;;3.50;85.00;;;;;;5032013;28;20037;-48
2022/12/26 01:02:36;;;;;;;7.05;5.28;;;3.50;85.20;;;;;;5032388;28;20088;-47
2022/12/26 01:04:51;;;;;;;8.10;5.97;;;3.50;85.10;;;;;;5031457;28;20050;-49
2022/12/26 01:07:17;;;;;;;7.22;5.60;;;3.50;85.20;;;;;;5033100;28;20037;-56
2022/12/26 01:09:42;;;;;;;5.93;5.03;;;3.50;84.90;;;;;;5031376;28;20034;-57
2022/12/26 01:12:08;;;;;;;6.38;5.28;;;3.40;84.50;;;;;;5031022;28;20168;-55
2022/12/26 01:14:33;;;;;;;6.07;5.00;;;3.40;84.40;;;;;;5028190;28;20039;-57
2022/12/26 01:16:59;;;;;;;5.72;5.00;;;3.30;84.40;;;;;;5023773;28;20306;-63
2022/12/26 01:19:25;;;;;;;7.15;5.28;;;3.30;84.50;;;;;;5028433;28;20036;-64
2022/12/26 01:21:50;;;;;;;6.70;5.07;;;3.30;84.60;;;;;;5038726;28;20043;-63
2022/12/26 01:24:16;;;;;;;7.10;5.43;;;3.20;84.90;;;;;;5042132;28;20037;-72
2022/12/26 01:26:41;;;;;;;7.20;5.80;;;3.30;85.20;;;;;;5035756;28;20045;-57
2022/12/26 01:29:08;;;;;;;7.22;5.30;;;3.20;85.00;;;;;;5031072;28;20025;-57
2022/12/26 01:31:33;;;;;;;6.85;5.07;;;3.20;84.80;;;;;;5032167;28;20479;-56
2022/12/26 01:33:59;;;;;;;6.97;5.50;;;3.20;84.70;;;;;;5029063;28;20296;-58
2022/12/26 01:36:25;;;;;;;6.38;5.07;;;3.20;84.70;;;;;;5032657;28;20036;-48
2022/12/26 01:38:50;;;;;;;7.05;5.40;;;3.20;84.80;;;;;;5031402;28;20388;-48
2022/12/26 01:41:16;;;;;;;7.40;5.93;;;3.20;84.70;;;;;;5032014;28;20029;-47
2022/12/26 01:44:02;;;;;;;6.95;5.90;;;3.20;85.30;;;;;;5030752;28;20106;-47
2022/12/26 01:46:42;;;;;;;7.45;5.82;;;3.20;84.40;;;;;;5019897;28;20080;-57
2022/12/26 01:49:13;;;;;;;7.45;5.90;;;3.20;84.60;;;;;;5027536;28;20025;-57
2022/12/26 01:51:42;;;;;;;7.32;5.85;;;3.20;85.00;;;;;;5031886;28;20029;-64
2022/12/26 01:54:11;;;;;;;7.88;5.78;;;3.20;85.20;;;;;;5031904;28;20427;-64
2022/12/26 01:56:40;;;;;;;7.03;5.50;;;3.20;85.40;;;;;;5031843;28;20045;-63
2022/12/26 01:59:10;;;;;;;7.15;5.35;;;3.20;85.10;;;;;;5031979;28;20044;-64
2022/12/26 02:01:39;;;;;;;7.28;5.47;;;3.20;84.60;;;;;;5031531;28;20041;-53
2022/12/26 02:06:53;;;;;;;7.43;5.75;;;3.10;84.40;;;;;;5031095;28;20407;-62
2022/12/26 02:09:19;;;;;;;6.13;5.45;;;3.10;84.60;;;;;;5031236;28;20033;-64
2022/12/26 02:11:52;;;;;;;6.93;5.88;;;3.10;84.50;;;;;;5031491;28;20061;-49
2022/12/26 02:14:18;;;;;;;7.00;5.38;;;3.10;84.60;;;;;;5030891;28;20086;-50
2022/12/26 02:16:45;;;;;;;7.15;5.80;;;3.10;84.50;;;;;;5025749;28;20033;-50
2022/12/26 02:19:36;;;;;;;7.65;5.95;;;3.10;84.50;;;;;;5030925;28;20120;-50
2022/12/26 02:22:08;;;;;;;;;;;3.10;84.20;;;;;;5019913;28;20136;-55
2022/12/26 02:24:52;;;;;;;7.68;5.65;;;3.00;84.50;;;;;;5028647;28;19921;-55
2022/12/26 02:27:51;;;;;;;7.30;5.85;;;3.10;84.70;;;;;;5030831;28;20488;-57
2022/12/26 02:30:25;;;;;;;7.43;5.90;;;3.10;84.60;;;;;;5023014;28;20431;-55
2022/12/26 02:33:01;;;;;;;7.95;6.05;;;3.10;84.60;;;;;;5032686;28;20087;-55
2022/12/26 02:35:45;;;;;;;7.88;6.28;;;3.10;84.50;;;;;;5034863;28;20100;-64
2022/12/26 02:38:29;;;;;;;7.35;5.93;;;3.10;84.50;;;;;;5024955;28;20518;-63
2022/12/26 02:41:19;;;;;;;8.35;6.43;;;3.10;84.50;;;;;;5034265;28;20022;-47
2022/12/26 02:47:01;;;;;;;8.45;6.25;;;3.20;84.50;;;;;;5033725;28;20033;-49
2022/12/26 02:47:13;;;;;;;8.60;6.50;;;3.10;84.50;;;;;;5032886;28;20042;-65
2022/12/26 03:13:09;;;;;;;7.53;5.45;;;3.20;84.60;;;;;;5035158;28;20029;-61
2022/12/26 03:18:49;;;;;;;6.82;5.43;;;3.20;83.60;;;;;;5027356;28;20092;-54
2022/12/26 03:21:19;;;;;;;5.78;5.10;;;3.10;83.50;;;;;;5033462;28;20545;-56
2022/12/26 03:23:46;;;;;;;7.15;5.75;;;3.10;83.50;;;;;;5034166;28;20116;-56
2022/12/26 03:31:46;;;;;;;8.65;5.22;;;3.20;83.80;;;;;;5037524;28;20495;-55
2022/12/26 03:34:17;;;;;;;7.47;5.65;;;3.20;83.70;;;;;;5033737;28;20446;-54
2022/12/26 03:36:49;;;;;;;;;;;3.20;83.70;;;;;;5033381;28;20439;-57
2022/12/26 04:20:39;;;;;;;;;;;3.10;83.10;;;;;;5028100;28;20113;-56
2022/12/26 04:46:51;;;;;;;6.38;4.82;;;2.90;82.10;;;;;;4993513;28;20473;-48
2022/12/26 04:52:06;;;;;;;6.38;5.07;;;2.90;82.10;;;;;;5003438;28;20044;-57
2022/12/26 04:54:32;;;;;;;6.20;4.90;;;2.90;81.90;;;;;;5032039;28;20035;-56
2022/12/26 04:56:58;;;;;;;6.07;4.82;;;2.90;81.90;;;;;;5031913;28;20029;-64
2022/12/26 04:59:24;;;;;;;6.28;4.97;;;2.90;81.80;;;;;;5032479;28;20057;-63
2022/12/26 05:10:20;;;;;;;6.60;5.22;;;2.80;81.40;;;;;;5029145;28;20032;-51
2022/12/26 05:12:46;;;;;;;6.75;5.30;;;2.80;81.60;;;;;;5030279;28;20072;-48
2022/12/26 05:15:12;;;;;;;6.10;5.05;;;2.80;81.80;;;;;;5032301;28;20492;-47
2022/12/26 05:29:05;;;;;;;5.65;4.75;;;2.90;81.50;;;;;;5027717;28;20486;-49
2022/12/26 05:31:31;;;;;;;5.45;4.55;;;2.90;81.50;;;;;;5029969;28;20052;-50
2022/12/26 05:34:10;;;;;;;6.07;5.03;;;2.90;81.50;;;;;;5031071;28;20057;-50
2022/12/26 05:36:39;;;;;;;6.60;4.97;;;2.90;81.30;;;;;;5032093;28;20383;-47
2022/12/26 05:39:07;;;;;;;6.90;5.15;;;2.90;80.90;;;;;;5031591;28;20017;-47
2022/12/26 05:41:32;;;;;;;6.07;5.13;;;2.90;80.80;;;;;;5029723;28;20040;-56
2022/12/26 05:43:58;;;;;;;5.63;4.75;;;2.90;80.80;;;;;;5029678;28;20100;-55
2022/12/26 05:46:24;;;;;;;5.85;4.88;;;2.90;80.80;;;;;;5029798;28;20175;-48
2022/12/26 05:48:49;;;;;;;5.90;4.90;;;3.00;80.90;;;;;;5027458;28;20038;-54
2022/12/26 05:51:15;;;;;;;7.05;5.50;;;3.00;81.00;;;;;;5030495;28;20104;-51
2022/12/26 05:53:41;;;;;;;6.63;4.97;;;3.00;81.00;;;;;;5029674;28;20025;-49
2022/12/26 05:56:10;;;;;;;6.60;4.75;;;3.00;80.80;;;;;;5030889;28;20034;-66
2022/12/26 05:58:36;;;;;;;6.63;4.70;;;3.00;80.70;;;;;;5028190;28;20045;-64
2022/12/26 06:01:16;;;;;;;5.13;4.60;;;3.00;80.60;;;;;;5031605;28;20041;-62
2022/12/26 06:03:46;;;;;;;6.57;4.70;;;3.00;80.50;;;;;;5030896;28;20112;-63
2022/12/26 06:06:12;;;;;;;6.20;4.30;;;3.00;80.40;;;;;;5031530;28;20060;-65
2022/12/26 06:08:38;;;;;;;5.70;4.70;;;3.00;80.20;;;;;;5026912;28;20056;-62
2022/12/26 06:11:10;;;;;;;6.78;4.57;;;2.90;80.10;;;;;;5025600;28;20534;-64
2022/12/26 06:13:36;;;;;;;5.88;4.75;;;2.90;79.90;;;;;;5030259;28;20038;-63
2022/12/26 06:16:08;;;;;;;5.07;4.40;;;2.90;80.00;;;;;;5030741;28;20045;-57
2022/12/26 06:18:34;;;;;;;5.25;4.65;;;2.90;79.90;;;;;;5031178;28;20437;-55
2022/12/26 06:21:06;;;;;;;5.93;4.70;;;2.90;79.90;;;;;;5029209;28;20034;-51
2022/12/26 06:23:34;;;;;;;5.25;4.30;;;2.80;79.80;;;;;;5030665;28;20072;-51
2022/12/26 06:26:00;;;;;;;5.70;4.47;;;2.80;79.80;;;;;;5030228;28;20491;-51
2022/12/26 06:28:26;;;;;;;5.43;4.35;;;2.80;79.80;;;;;;5024330;28;20045;-49
2022/12/26 06:30:52;;;;;;;5.22;4.43;;;2.80;79.80;;;;;;5027501;28;20029;-49
2022/12/26 06:33:17;;;;;;;5.18;4.00;;;2.80;79.80;;;;;;5025183;28;20088;-47
2022/12/26 06:35:43;;;;;;;5.63;4.10;;;2.80;79.70;;;;;;5026491;28;20468;-50
2022/12/26 06:38:09;;;;;;;4.90;3.95;;;2.80;79.40;;;;;;5026415;28;20109;-49
2022/12/26 06:40:40;;;;;;;5.57;4.50;;;2.80;79.20;;;;;;5021830;28;20120;-57
2022/12/26 06:43:06;;;;;;;5.22;4.43;;;2.90;79.10;;;;;;5029624;28;20125;-58
2022/12/26 06:45:32;;;;;;;4.53;4.07;;;2.80;78.80;;;;;;5024637;28;20056;-58
2022/12/26 06:47:58;;;;;;;4.10;3.70;;;2.80;78.60;;;;;;5030341;28;21715;-57
2022/12/26 06:50:25;;;;;;;4.75;4.22;;;2.80;78.80;;;;;;5039221;28;20484;-58
2022/12/26 06:52:50;;;;;;;5.72;4.45;;;2.80;78.60;;;;;;5023700;28;20120;-58
2022/12/26 06:55:16;;;;;;;4.85;4.00;;;2.80;78.40;;;;;;5027513;28;20117;-59
2022/12/26 06:57:42;;;;;;;4.95;3.90;;;2.80;78.30;;;;;;5026825;28;20034;-56
2022/12/26 07:00:08;;;;;;;5.05;4.38;;;2.90;78.20;;;;;;5027599;28;20037;-55
2022/12/26 07:02:34;;;;;;;4.00;3.60;;;2.80;77.60;;;;;;5022271;28;20021;-55
2022/12/26 07:04:59;;;;;;;4.90;4.20;;;2.90;77.50;;;;;;5023447;28;20037;-55
2022/12/26 07:07:25;;;;;;;4.50;3.72;;;2.80;77.60;;;;;;5021199;28;20140;-55
2022/12/26 07:09:51;;;;;;;4.32;3.85;;;2.80;77.70;;;;;;5017095;28;20055;-56
2022/12/26 07:12:19;;;;;;;4.93;4.30;;;2.90;77.80;;;;;;5027475;28;20060;-57
2022/12/26 07:14:45;;;;;;;5.25;4.22;;;2.90;77.90;;;;;;5020976;28;20033;-59
2022/12/26 07:17:11;;;;;;;5.60;4.32;;;2.90;77.80;;;;;;5025376;28;20067;-58
2022/12/26 07:19:36;;;;;;;5.25;4.15;;;2.90;77.70;;;;;;5027230;28;20418;-58
2022/12/26 07:22:02;;;;;;;4.55;3.72;;;3.00;77.90;;;;;;5023982;28;20061;-63
2022/12/26 07:24:28;;;;;;;5.10;4.10;;;3.00;77.70;;;;;;5029155;28;20034;-65
2022/12/26 07:26:53;;;;;;;4.40;3.97;;;3.00;77.70;;;;;;5024725;28;20549;-58
2022/12/26 07:29:20;;;;;;;4.20;3.70;;;3.00;77.80;;;;;;5020095;28;21031;-57
2022/12/26 07:31:46;;;;;;;4.40;3.75;;;3.10;77.50;;;;;;5023916;28;20017;-53
2022/12/26 07:34:12;;;;;;;4.30;3.67;;;3.10;77.40;;;;;;5016945;28;20040;-53
2022/12/26 07:36:39;;;;;;;4.45;3.90;;;3.10;77.40;;;;;;5017405;28;20032;-60
2022/12/26 07:39:05;;;;;;;4.38;3.58;;;3.10;77.10;;;;;;5019153;28;20048;-58
2022/12/26 07:44:15;;;;;;;5.45;4.10;;;3.20;77.20;;;;;;5021069;28;20048;-49
2022/12/26 07:46:40;;;;;;;4.40;3.50;;;3.30;77.10;;;;;;5023329;28;20452;-55
2022/12/26 07:49:06;;;;;;;4.75;3.85;;;3.30;77.20;;;;;;5018189;28;20117;-51
2022/12/26 07:51:32;;;;;;;4.88;3.60;;;3.30;77.30;;;;;;5019125;28;20037;-49
2022/12/26 07:53:58;;;;;;;4.45;3.83;;;3.40;77.30;;;;;;5018890;28;20105;-52
2022/12/26 07:56:23;;;;;;;4.43;3.85;;;3.40;77.10;;;;;;5012921;28;20468;-52
2022/12/26 07:58:50;;;;;;;5.30;4.00;;;3.40;76.80;;;;;;5008097;28;20426;-53
2022/12/26 08:01:17;;;;;;;5.10;4.25;;;3.40;76.60;;;;;;5004408;28;20037;-53
2022/12/26 08:03:43;;;;;;;5.22;3.95;;;3.40;76.40;;;;;;5010465;28;20033;-54
2022/12/26 08:06:10;;;;;;;4.50;4.00;;;3.40;76.40;;;;;;5004251;28;20127;-55
2022/12/26 08:08:36;;;;;;;4.53;3.97;;;3.40;76.60;;;;;;5006758;28;20061;-51
2022/12/26 08:11:04;;;;;;;4.65;3.83;;;3.40;76.50;;;;;;5014573;28;20557;-54
2022/12/26 08:13:30;;;;;;;4.35;3.72;;;3.50;76.50;;;;;;5012078;28;20033;-55
2022/12/26 08:15:57;;;;;;;4.13;3.70;;;3.50;76.40;;;;;;5012463;28;20044;-56
2022/12/26 08:18:23;;;;;;;4.80;3.97;;;3.50;75.90;;;;;;5003275;28;20080;-57
2022/12/26 08:20:49;;;;;;;5.18;4.28;;;3.50;75.70;;;;;;5003663;28;21325;-55
2022/12/26 08:23:15;;;;;;;4.90;3.95;;;3.60;75.70;;;;;;4999304;28;20042;-56
2022/12/26 08:25:41;;;;;;;4.35;3.70;;;3.60;75.60;;;;;;5003914;28;20083;-54
2022/12/26 08:28:06;;;;;;;5.10;3.92;;;3.60;75.60;;;;;;5003386;28;20141;-58
2022/12/26 08:30:32;;;;;;;4.97;4.10;;;3.60;75.30;;;;;;5006718;28;20064;-56
2022/12/26 08:32:58;;;;;;;4.30;3.88;;;3.60;75.20;;;;;;5004179;28;20056;-57
2022/12/26 08:35:23;;;;;;;5.20;4.47;;;3.60;75.00;;;;;;5008293;28;20063;-57
2022/12/26 08:37:49;;;;;;;6.03;4.55;;;3.60;75.20;;;;;;4850756;28;88133;-58
2022/12/26 08:40:15;;;;;;;5.00;3.92;;;3.60;75.20;;;;;;4930642;28;20066;-56
2022/12/26 08:42:40;;;;;;;5.47;4.32;;;3.60;75.10;;;;;;4940128;28;20031;-56
2022/12/26 08:45:06;;;;;;;5.00;3.83;;;3.70;75.00;;;;;;4933900;28;20130;-54
2022/12/26 08:47:32;;;;;;;5.35;4.43;;;3.70;74.90;;;;;;4951084;28;20055;-59
2022/12/26 08:49:58;;;;;;;5.20;4.25;;;3.70;74.90;;;;;;4925390;28;20514;-62
2022/12/26 08:52:23;;;;;;;5.43;4.00;;;3.70;74.90;;;;;;4926482;28;20086;-60
2022/12/26 08:54:49;;;;;;;4.55;3.47;;;3.80;75.00;;;;;;4923620;28;20397;-59
2022/12/26 08:57:15;;;;;;;5.03;4.05;;;3.80;74.90;;;;;;4922352;28;20037;-59
2022/12/26 08:59:41;;;;;;;5.10;4.05;;;3.80;74.70;;;;;;4919962;28;21237;-58
2022/12/26 09:02:10;;;;;;;5.40;4.25;;;3.80;74.50;;;;;;4916453;28;20039;-60
2022/12/26 09:04:36;;;;;;;4.53;3.95;;;3.80;74.40;;;;;;4920238;28;20047;-58
2022/12/26 09:07:02;;;;;;;4.82;3.90;;;3.70;74.30;;;;;;4925529;28;20059;-60
2022/12/26 09:09:28;;;;;;;4.25;3.85;;;3.70;74.40;;;;;;4929055;28;20106;-59
2022/12/26 09:11:53;;;;;;;4.47;3.75;;;3.70;74.30;;;;;;4927206;28;20132;-63
2022/12/26 09:14:19;;;;;;;4.70;3.92;;;3.70;74.30;;;;;;4931354;28;20035;-62
2022/12/26 09:16:45;;;;;;;4.88;3.90;;;3.60;74.20;;;;;;4927704;28;20062;-61
2022/12/26 09:19:13;;;;;;;4.45;3.75;;;3.60;74.30;;;;;;4928294;28;20042;-61
2022/12/26 09:21:39;;;;;;;4.70;4.13;;;3.60;74.20;;;;;;4931548;28;20035;-61
2022/12/26 09:24:10;;;;;;;4.82;4.07;;;3.60;74.40;;;;;;4921064;28;20027;-59
2022/12/26 09:26:36;;;;;;;5.38;3.90;;;3.50;74.40;;;;;;4932196;28;20071;-60
2022/12/26 09:29:03;;;;;;;4.40;3.80;;;3.50;74.50;;;;;;4933864;28;20043;-59
2022/12/26 09:31:32;;;;;;;5.10;4.15;;;3.50;74.60;;;;;;4921412;28;20059;-60
2022/12/26 09:34:02;;;;;;;4.28;3.80;;;3.50;74.70;;;;;;4925658;28;20035;-58
2022/12/26 09:36:30;;;;;;;4.47;3.58;;;3.50;74.80;;;;;;4920116;28;20040;-60
2022/12/26 09:38:57;;;;;;;5.20;4.18;;;3.50;74.90;;;;;;4924668;28;20039;-60
2022/12/26 09:41:44;;;;;;;4.72;3.72;;;3.50;75.10;;;;;;4926147;28;20073;-60
2022/12/26 09:44:19;;;;;;;5.18;3.83;;;3.60;75.10;;;;;;4924532;28;20058;-60
2022/12/26 09:46:53;;;;;;;4.18;3.60;;;3.60;75.10;;;;;;4926582;28;20081;-60
2022/12/26 09:49:24;;;;;;;4.53;4.10;;;3.60;75.00;;;;;;4925691;28;20703;-63
2022/12/26 09:51:55;;;;;;;5.85;3.88;;;3.60;74.80;;;;;;4917476;28;20129;-58
2022/12/26 09:54:33;;;;;;;4.80;3.92;;;3.60;74.70;;;;;;4930277;28;20046;-64
2022/12/26 09:57:02;;;;;;;4.78;3.95;;;3.60;74.80;;;;;;4928925;28;20035;-58
2022/12/26 09:59:33;;;;;;;4.47;3.90;;;3.60;74.80;;;;;;4928288;28;20050;-59
2022/12/26 10:01:58;;;;;;;4.00;3.40;;;3.60;74.70;;;;;;4924329;28;20114;-59
2022/12/26 10:04:27;;;;;;;4.20;3.60;;;3.70;74.80;;;;;;4926891;28;20805;-58
2022/12/26 10:07:15;;;;;;;4.72;3.80;;;3.70;74.70;;;;;;4928739;28;20071;-60
2022/12/26 10:09:44;;;;;;;4.32;3.63;;;3.70;74.60;;;;;;4930659;28;20039;-61
2022/12/26 10:12:13;;;;;;;5.85;3.90;;;3.70;74.50;;;;;;4920780;28;21044;-60
2022/12/26 10:15:16;;;;;;;4.38;3.63;;;3.80;74.50;;;;;;4930829;28;20393;-60
2022/12/26 10:17:58;;;;;;;3.78;3.38;;;3.80;74.40;;;;;;4928002;28;20191;-59
2022/12/26 10:20:51;;;;;;;4.57;3.70;;;3.90;74.50;;;;;;4931572;29;20040;-59
2022/12/26 10:23:32;;;;;;;4.95;3.78;;;3.90;74.40;;;;;;4931961;28;20031;-59
2022/12/26 10:26:19;;;;;;;3.92;3.47;;;3.90;74.20;;;;;;4925641;28;21410;-62
2022/12/26 10:28:58;;;;;;;6.43;3.50;;;4.00;74.20;;;;;;4928170;28;20035;-58
2022/12/26 10:31:23;;;;;;;4.82;3.65;;;3.90;74.10;;;;;;4919330;28;20497;-60
2022/12/26 10:34:12;;;;;;;5.03;3.90;;;4.00;74.30;;;;;;4921935;28;20040;-58
2022/12/26 10:36:56;;;;;;;5.35;3.97;;;4.00;74.10;;;;;;4931911;28;20051;-60
2022/12/26 10:39:29;;;;;;;3.88;3.40;;;4.00;74.10;;;;;;4930395;28;20545;-60
2022/12/26 10:42:00;;;;;;;4.25;3.55;;;4.10;74.00;;;;;;4933149;28;20027;-62
2022/12/26 10:44:26;;;;;;;5.90;4.00;;;4.10;73.90;;;;;;4927776;28;20030;-59
2022/12/26 10:47:07;;;;;;;4.25;3.85;;;4.10;73.90;;;;;;4931042;28;20039;-59
2022/12/26 10:49:32;;;;;;;4.78;3.97;;;4.10;73.80;;;;;;4931878;28;20039;-58
2022/12/26 10:52:00;;;;;;;4.65;3.95;;;4.10;73.80;;;;;;4931937;28;20031;-61
2022/12/26 10:54:28;;;;;;;4.72;3.80;;;4.10;73.80;;;;;;4931325;28;20066;-59
2022/12/26 10:56:55;;;;;;;4.88;3.90;;;4.10;73.80;;;;;;4936159;28;20027;-60
2022/12/26 10:59:43;;;;;;;4.07;3.45;;;4.10;73.80;;;;;;4932917;28;20052;-60
2022/12/26 11:02:14;;;;;;;4.05;3.65;;;4.10;73.70;;;;;;4931981;28;20031;-59
2022/12/26 11:04:58;;;;;;;4.07;3.67;;;4.10;73.80;;;;;;4936147;28;20128;-58
2022/12/26 11:07:26;;;;;;;4.88;3.90;;;4.00;73.50;;;;;;4925512;28;20122;-61
2022/12/26 11:09:54;;;;;;;4.07;3.65;;;4.00;73.70;;;;;;4924603;28;20094;-60
2022/12/26 11:12:43;;;;;;;4.10;3.58;;;4.00;74.00;;;;;;4928965;28;20031;-57
2022/12/26 11:15:21;;;;;;;5.25;3.90;;;4.00;73.60;;;;;;4929312;28;20039;-49
2022/12/26 11:17:49;;;;;;;4.40;3.83;;;4.00;73.60;;;;;;4937312;28;20062;-58
2022/12/26 11:20:15;;;;;;;5.20;3.90;;;4.00;73.70;;;;;;4938471;28;20493;-52
2022/12/26 11:22:45;;;;;;;4.45;3.55;;;4.00;73.70;;;;;;4934568;28;20027;-57
2022/12/26 11:25:16;;;;;;;4.53;3.80;;;4.00;73.60;;;;;;4926657;28;20043;-56
2022/12/26 11:27:49;;;;;;;5.22;3.90;;;4.00;73.60;;;;;;4933224;28;20039;-57
2022/12/26 11:30:26;;;;;;;4.88;3.90;;;4.00;73.60;;;;;;4930817;28;20071;-54
2022/12/26 11:33:12;;;;;;;4.20;3.70;;;4.00;73.60;;;;;;4931558;28;20035;-56
2022/12/26 11:35:47;;;;;;;4.22;3.70;;;4.00;73.60;;;;;;4930475;28;20118;-55
2022/12/26 11:38:33;;;;;;;5.05;3.90;;;4.00;73.80;;;;;;4928412;28;20036;-57
2022/12/26 11:41:31;;;;;;;4.78;3.90;;;4.00;73.80;;;;;;4930234;28;20090;-57
2022/12/26 11:44:15;;;;;;;4.78;3.85;;;4.00;73.80;;;;;;4930514;28;20043;-56
2022/12/26 11:46:52;;;;;;;4.03;3.60;;;3.90;73.80;;;;;;4932783;28;20070;-57
2022/12/26 11:49:40;;;;;;;4.70;4.10;;;4.00;73.80;;;;;;4934486;28;20575;-56
2022/12/26 11:52:37;;;;;;;3.92;3.53;;;3.90;73.70;;;;;;4929357;28;20086;-56
2022/12/26 11:55:23;;;;;;;4.50;3.65;;;3.90;73.70;;;;;;4934174;28;20039;-54
2022/12/26 11:58:06;;;;;;;4.68;3.85;;;3.90;73.70;;;;;;4937998;28;20042;-58
2022/12/26 12:00:34;;;;;;;4.57;4.07;;;4.00;74.00;;;;;;4938914;28;20698;-65
2022/12/26 12:03:02;;;;;;;4.88;3.95;;;4.00;74.10;;;;;;4932664;28;20039;-64
2022/12/26 12:05:43;;;;;;;4.47;3.70;;;4.00;73.90;;;;;;4933788;28;20047;-59
2022/12/26 12:08:24;;;;;;;4.05;3.65;;;4.00;73.90;;;;;;4939552;28;20063;-65
2022/12/26 12:11:34;;;;;;;4.97;4.10;;;4.00;73.80;;;;;;4929163;28;20081;-54
2022/12/26 12:14:08;;;;;;;6.15;3.80;;;4.00;73.70;;;;;;4929711;28;20051;-53
2022/12/26 12:16:38;;;;;;;3.90;3.50;;;4.00;73.80;;;;;;4932976;28;20050;-52
2022/12/26 12:19:06;;;;;;;3.85;3.20;;;4.10;73.90;;;;;;4923287;28;20063;-54
2022/12/26 12:21:38;;;;;;;4.80;4.30;;;4.10;73.90;;;;;;4917885;28;20040;-53
2022/12/26 12:24:28;;;;;;;4.78;3.72;;;4.10;73.60;;;;;;4929821;28;20126;-53
2022/12/26 12:27:17;;;;;;;4.13;3.70;;;4.10;73.60;;;;;;4910015;28;20100;-55
2022/12/26 12:30:10;;;;;;;3.90;3.50;;;4.10;73.40;;;;;;4922767;28;20035;-54
2022/12/26 12:32:49;;;;;;;4.95;3.90;;;4.20;73.30;;;;;;4928522;28;20035;-53
2022/12/26 12:35:26;;;;;;;4.82;3.85;;;4.10;73.30;;;;;;4927419;28;20138;-53
2022/12/26 12:38:06;;;;;;;4.70;3.90;;;4.10;74.00;;;;;;4930475;28;20035;-52
2022/12/26 12:40:53;;;;;;;4.55;3.58;;;4.20;73.30;;;;;;4936056;28;20031;-55
2022/12/26 12:43:29;;;;;;;4.43;3.60;;;4.20;73.30;;;;;;4931056;28;20031;-55
2022/12/26 12:46:09;;;;;;;4.43;3.40;;;4.20;73.20;;;;;;4932539;28;21328;-57
2022/12/26 12:48:53;;;;;;;4.40;3.85;;;4.20;73.20;;;;;;4932270;28;20040;-57
2022/12/26 12:51:53;;;;;;;4.47;3.80;;;4.20;73.10;;;;;;4930881;28;20560;-53
2022/12/26 12:54:33;;;;;;;4.03;3.33;;;4.20;73.10;;;;;;4931359;28;20039;-56
2022/12/26 12:57:11;;;;;;;4.00;3.60;;;4.20;73.20;;;;;;4926444;28;20990;-54
2022/12/26 12:59:37;;;;;;;4.32;3.67;;;4.30;73.10;;;;;;4930012;28;20039;-57
2022/12/26 13:02:12;;;;;;;4.88;3.80;;;4.30;72.80;;;;;;4928109;28;20035;-52
2022/12/26 13:04:47;;;;;;;5.97;3.70;;;4.30;72.70;;;;;;4938041;28;20584;-56
2022/12/26 13:07:29;;;;;;;4.93;3.97;;;4.30;72.70;;;;;;4920792;28;20121;-57
2022/12/26 13:09:59;;;;;;;4.45;3.85;;;4.30;72.50;;;;;;4936068;28;20442;-55
2022/12/26 13:12:36;;;;;;;5.03;4.00;;;4.30;72.50;;;;;;4937547;29;20653;-53
2022/12/26 13:15:18;;;;;;;5.47;3.95;;;4.30;72.50;;;;;;4932422;28;20130;-54
2022/12/26 13:18:02;;;;;;;4.38;3.55;;;4.30;72.50;;;;;;4921870;28;21940;-54
2022/12/26 13:20:37;;;;;;;4.35;3.35;;;4.30;72.50;;;;;;4929054;28;20061;-56
2022/12/26 13:26:19;;;;;;;5.05;3.70;;;4.30;72.50;;;;;;4930467;28;20156;-57
2022/12/26 13:29:01;;;;;;;4.22;3.83;;;4.30;72.50;;;;;;4932632;28;20166;-56
2022/12/26 13:31:35;;;;;;;4.43;3.88;;;4.30;72.40;;;;;;4923643;28;20529;-54
2022/12/26 13:34:03;;;;;;;4.55;3.50;;;4.30;72.20;;;;;;4927435;28;20027;-57
2022/12/26 13:36:56;;;;;;;4.55;3.58;;;4.30;72.20;;;;;;4921363;28;20038;-55
2022/12/26 13:39:30;;;;;;;3.63;3.28;;;4.30;72.20;;;;;;4929045;28;20035;-54
2022/12/26 13:45:38;;;;;;;4.22;3.83;;;4.30;72.20;;;;;;4922513;28;20042;-55
2022/12/26 13:48:16;;;;;;;4.05;3.45;;;4.30;72.10;;;;;;4935982;28;20441;-60
2022/12/26 13:50:48;;;;;;;4.50;3.70;;;4.20;72.10;;;;;;4932010;28;20059;-63
2022/12/26 13:53:32;;;;;;;;;;;4.20;72.00;;;;;;4928964;28;20036;-60
2022/12/26 13:56:09;;;;;;;4.03;3.60;;;4.10;71.70;;;;;;4925831;28;19914;-56
2022/12/26 13:58:40;;;;;;;3.78;3.28;;;4.10;72.10;;;;;;4927381;28;20042;-54
2022/12/26 14:01:15;;;;;;;4.72;3.70;;;4.10;72.30;;;;;;4932737;28;20046;-58
2022/12/26 14:03:43;;;;;;;5.70;4.22;;;4.10;72.20;;;;;;4928230;28;20032;-57
2022/12/26 14:06:27;;;;;;;4.78;3.80;;;4.10;72.20;;;;;;4931650;28;20157;-59
2022/12/26 14:08:59;;;;;;;4.60;3.55;;;4.10;72.30;;;;;;4933289;28;20043;-59
2022/12/26 14:11:36;;;;;;;;;;;4.00;72.20;;;;;;4920141;28;20042;-59
2022/12/26 14:14:16;;;;;;;4.20;3.67;;;4.00;72.20;;;;;;4928962;28;19958;-59
2022/12/26 14:16:56;;;;;;;4.15;3.40;;;4.00;72.40;;;;;;4938626;28;20031;-58
2022/12/26 14:19:43;;;;;;;3.70;3.38;;;4.00;72.40;;;;;;4935016;28;20525;-58
2022/12/26 14:22:21;;;;;;;4.55;3.78;;;4.00;72.30;;;;;;4936514;28;20027;-56
2022/12/26 14:25:03;;;;;;;4.10;3.70;;;4.10;72.20;;;;;;4932827;28;20402;-58
2022/12/26 14:27:32;;;;;;;;;;;4.00;72.30;;;;;;4935736;28;20062;-53
2022/12/26 14:30:19;;;;;;;5.38;3.35;;;4.00;72.20;;;;;;4970311;28;19926;-57
2022/12/26 14:32:59;;;;;;;4.30;3.88;;;4.00;72.40;;;;;;4935022;28;20055;-56
2022/12/26 14:35:44;;;;;;;5.47;4.30;;;4.00;72.40;;;;;;4932140;28;20062;-55
2022/12/26 14:38:51;;;;;;;4.22;3.67;;;4.00;72.50;;;;;;4937682;28;20259;-59
2022/12/26 14:44:23;;;;;;;4.93;3.83;;;4.00;72.50;;;;;;4927543;28;20046;-56
2022/12/26 14:46:48;;;;;;;4.55;4.03;;;4.10;72.60;;;;;;4930470;28;20062;-58
2022/12/26 14:49:29;;;;;;;5.25;3.67;;;4.10;72.30;;;;;;4935222;28;20036;-56
2022/12/26 14:52:14;;;;;;;4.78;4.18;;;4.20;72.30;;;;;;4920749;28;20027;-57
2022/12/26 14:54:45;;;;;;;5.38;4.57;;;4.20;72.10;;;;;;4932811;28;20949;-55
2022/12/26 14:57:40;;;;;;;4.25;3.85;;;4.20;72.20;;;;;;4933053;28;20032;-55
2022/12/26 15:00:23;;;;;;;4.88;3.70;;;4.20;72.10;;;;;;4928922;28;20839;-56
2022/12/26 15:03:30;;;;;;;4.78;3.83;;;4.20;72.10;;;;;;4924124;28;20028;-53
2022/12/26 15:06:18;;;;;;;5.00;4.15;;;4.20;72.20;;;;;;4928624;28;20047;-54
2022/12/26 15:09:09;;;;;;;4.60;3.83;;;4.30;72.20;;;;;;4930199;28;20031;-56
2022/12/26 15:11:50;;;;;;;4.85;3.63;;;4.30;72.20;;;;;;4920171;28;20063;-57
2022/12/26 15:14:43;;;;;;;5.22;4.20;;;4.30;72.10;;;;;;4926071;28;20139;-58
2022/12/26 15:17:25;;;;;;;6.55;4.55;;;4.40;72.10;;;;;;4918619;28;20044;-58
2022/12/26 15:20:22;;;;;;;5.45;4.10;;;4.40;71.70;;;;;;4918526;28;20126;-58
2022/12/26 15:23:25;;;;;;;5.15;4.15;;;4.40;71.50;;;;;;4931101;28;20039;-57
2022/12/26 15:26:13;;;;;;;5.88;4.20;;;4.40;71.40;;;;;;4934093;28;20062;-59
2022/12/26 15:28:51;;;;;;;5.07;4.45;;;4.50;71.50;;;;;;4918802;28;20055;-59
2022/12/26 15:31:41;;;;;;;5.43;4.20;;;4.50;71.40;;;;;;4930250;28;20045;-58
2022/12/26 15:34:24;;;;;;;5.78;4.68;;;4.50;71.40;;;;;;4932270;28;20465;-57
2022/12/26 15:37:01;;;;;;;5.70;4.32;;;4.50;71.30;;;;;;4924137;28;20035;-57
2022/12/26 15:39:54;;;;;;;6.13;4.60;;;4.60;71.30;;;;;;4923262;28;20502;-59
2022/12/26 15:42:32;;;;;;;6.07;4.57;;;4.60;71.20;;;;;;4933776;28;20031;-53